Burke, New York
Current Conditions -  °F | °C
As of 8:53 PM on Saturday 25 Oct 2014 (Local Time) from KMSS Reporting Station
Haze Haze  
Wind Chill: 50°   Ceiling: Unl
Heat Index: 50°   Visibility: 5mi
Dew Point: 48°   Wind: 8mph
Humidity: 93%   Direction: 230°SW
Pressure: 29.48"   Gusts: NA
Location:  44.9°N, 74.17°W
Report Text: KMSS 260053Z AUTO 23007KT 5SM BR FEW065 FEW080 10/09 A2948 RMK AO2 SLP984 T01000089
Loading
Personal Weather Stations






























Interactive Weather Map
Tropical Storm Tracking
New forecast layout! Learn more

10-Day Weather Forecast

Advertisements
Track Severe Weather on mobile